INFORMACIÓN METAR y TAF
METAR FOR LEVC
ADDS - METARS form results

(2053 UTC 13 August 2022)
Data provider http://aviationweather.gov/metar/data/
 
METAR text: LEVC 132030Z 31012KT CAVOK 31/10 Q1014 NOSIG
Conditions at: LEVC (VALENCIA (CIV/MI, ES) observed 2030 UTC 13 August 2022
Temperature: 31.0°C (88°F)
Dewpoint: 10.0°C (50°F) [RH = 27%]
Pressure (altimeter): 29.94 inches Hg (1014.0 mb)
Winds: from the NW (310 degrees) at 14 MPH (12 knots; 6.2 m/s)
Visibility: 6 or more miles (10+ km)
Ceiling: ceiling and visibility are OK
Clouds: unknown
Weather: no significant weather observed at this time

METAR text: LEVC 132000Z 29009KT 240V310 9999 FEW055CB 31/11 Q1014 TEMPO TS
Conditions at: LEVC (VALENCIA (CIV/MI, ES) observed 2000 UTC 13 August 2022
Temperature: 31.0°C (88°F)
Dewpoint: 11.0°C (52°F) [RH = 29%]
Pressure (altimeter): 29.94 inches Hg (1014.0 mb)
Winds: from the WNW (290 degrees) at 10 MPH (9 knots; 4.6 m/s)
Visibility: 6 or more miles (10+ km)
Ceiling: at least 12,000 feet AGL
Clouds: few clouds at 5500 feet AGL
Weather: no significant weather observed at this time

Forecast for: LEVC (VALENCIA (CIV/MI, ES)
Text: TAF LEVC 131700Z 1318/1418 30020KT 9999 FEW040 TX38/1415Z TN26/1406Z
Forecast period: 1800 to 1900 UTC 13 August 2022
Forecast type: FROM: standard forecast or significant change
Winds: from the WNW (300 degrees) at 23 MPH (20 knots; 10.3 m/s)
Visibility: 6 or more miles (10+ km)
Ceiling: at least 12,000 feet AGL
Clouds: few clouds at 4000 feet AGL
Weather: no significant weather forecast for this period
Text: PROB40
Forecast period: 1800 to 2100 UTC 13 August 2022
Forecast type: TEMPORARY: The following changes expected for less than half the time period
Winds: from the WNW (300 degrees) at 29 MPH (25 knots; 12.9 m/s)
gusting to 52 MPH (45 knots; 23.1 m/s)
Visibility: 1.86 miles (2.99 km)
Ceiling: at least 12,000 feet AGL
Clouds: few clouds at 5000 feet AGL
Weather: TSRA  (rain associated with thunderstorm(s))
Text: TEMPO 1318/1321 30025G45KT 3000 TSRA FEW050CB
Forecast period: 1900 UTC 13 August 2022 to 1100 UTC 14 August 2022
Forecast type: BECOMING: Conditions expected to become as follows by 2200 UTC 13 August 2022
Winds: variable direction winds at 3 MPH (3 knots; 1.5 m/s)
Visibility: 6 or more miles (10+ km)
Ceiling: at least 12,000 feet AGL
Clouds: few clouds at 4000 feet AGL
Weather: no significant weather forecast for this period
Text: BECMG 1319/1322 VRB03KT
Forecast period: 1100 to 1800 UTC 14 August 2022
Forecast type: BECOMING: Conditions expected to become as follows by 1400 UTC 14 August 2022
Winds: from the E (100 degrees) at 12 MPH (10 knots; 5.1 m/s)
Visibility: 6 or more miles (10+ km)
Ceiling: at least 12,000 feet AGL
Clouds: few clouds at 4000 feet AGL
Weather: no significant weather forecast for this period

 MAPA DE AEROPUERTO

 INFORMACIÓN DE PISTA